Time;durP1;ratioP1;P1;durP2;ratioP2;P2;SDS_P1;SDS_P2;PMS_P1;PMS_P2;Temp;Humidity;BMP_temperature;BMP_pressure;BME280_temperature;BME280_humidity;BME280_pressure;Samples;Min_cycle;Max_cycle;Signal;HPM_P1;HPM_P2
2022/01/09 00:00:57;;;;;;;8.40;6.68;;;4.70;99.90;;;;;;5136869;27;20500;-76
2022/01/09 00:03:25;;;;;;;10.27;8.27;;;5.00;99.90;;;;;;5137559;27;20042;-76
2022/01/09 00:05:51;;;;;;;8.38;6.82;;;4.70;99.90;;;;;;5137330;27;20497;-75
2022/01/09 00:08:17;;;;;;;7.38;6.60;;;4.70;99.90;;;;;;5136809;27;20043;-76
2022/01/09 00:10:47;;;;;;;7.85;6.63;;;4.70;99.90;;;;;;5156067;27;20039;-75
2022/01/09 00:13:13;;;;;;;10.90;7.40;;;4.70;99.90;;;;;;5137418;27;20125;-76
2022/01/09 00:15:39;;;;;;;11.48;7.63;;;4.70;99.90;;;;;;5136474;27;20111;-76
2022/01/09 00:18:05;;;;;;;8.88;7.22;;;4.70;99.90;;;;;;5137610;27;20054;-76
2022/01/09 00:20:31;;;;;;;10.98;7.88;;;4.70;99.90;;;;;;5120054;27;20538;-76
2022/01/09 00:22:57;;;;;;;12.00;8.10;;;4.70;99.90;;;;;;5136444;27;20042;-76
2022/01/09 00:25:24;;;;;;;10.40;8.25;;;4.70;99.90;;;;;;5137064;27;20043;-76
2022/01/09 00:27:51;;;;;;;8.23;7.18;;;4.70;99.90;;;;;;5137443;27;20041;-76
2022/01/09 00:30:19;;;;;;;8.68;7.70;;;4.70;99.90;;;;;;5119275;27;20389;-76
2022/01/09 00:32:45;;;;;;;11.18;8.38;;;4.70;99.90;;;;;;5137203;27;20039;-75
2022/01/09 00:35:12;;;;;;;11.90;9.02;;;4.70;99.90;;;;;;5155689;27;20106;-76
2022/01/09 00:37:38;;;;;;;10.30;8.45;;;4.70;99.90;;;;;;5136315;27;20175;-75
2022/01/09 00:40:05;;;;;;;11.98;7.97;;;4.70;99.90;;;;;;5155678;27;20035;-75
2022/01/09 00:42:31;;;;;;;11.55;9.20;;;4.70;99.90;;;;;;5136195;27;20095;-75
2022/01/09 00:44:57;;;;;;;13.10;9.20;;;4.70;99.90;;;;;;5133018;27;20051;-76
2022/01/09 00:47:23;;;;;;;9.35;8.15;;;4.70;99.90;;;;;;5132698;27;20418;-76
2022/01/09 00:49:48;;;;;;;10.90;8.85;;;4.70;99.90;;;;;;5133592;27;20126;-76
2022/01/09 00:52:14;;;;;;;9.48;6.63;;;4.70;99.90;;;;;;5134623;27;20050;-75
2022/01/09 00:54:40;;;;;;;10.30;7.85;;;4.70;99.90;;;;;;5134765;27;20159;-75
2022/01/09 00:57:06;;;;;;;10.30;7.50;;;4.80;99.90;;;;;;5133867;27;20047;-75
2022/01/09 00:59:32;;;;;;;13.02;9.52;;;4.70;99.90;;;;;;5133680;27;20045;-76
2022/01/09 01:01:58;;;;;;;11.23;9.15;;;4.70;99.90;;;;;;5134384;27;20122;-75
2022/01/09 01:04:24;;;;;;;12.55;9.75;;;4.80;99.90;;;;;;5133835;27;20031;-75
2022/01/09 01:06:51;;;;;;;12.68;8.98;;;4.70;99.90;;;;;;5134229;28;20375;-76
2022/01/09 01:09:20;;;;;;;11.50;8.95;;;4.70;99.90;;;;;;5133030;28;20047;-75
2022/01/09 01:11:46;;;;;;;17.77;9.93;;;4.70;99.90;;;;;;5132619;28;20055;-76
2022/01/09 01:14:12;;;;;;;10.32;8.55;;;4.70;99.90;;;;;;5116064;28;20513;-76
2022/01/09 01:16:39;;;;;;;11.50;9.32;;;4.70;99.90;;;;;;5134486;28;20055;-75
2022/01/09 01:19:06;;;;;;;12.95;10.57;;;5.00;99.90;;;;;;5132601;28;20043;-76
2022/01/09 01:21:32;;;;;;;12.57;9.57;;;4.70;99.90;;;;;;5133002;28;20172;-75
2022/01/09 01:23:58;;;;;;;15.40;9.52;;;4.70;99.90;;;;;;5133196;28;20047;-75
2022/01/09 01:26:24;;;;;;;12.50;9.63;;;4.70;99.90;;;;;;5132112;28;20395;-76
2022/01/09 01:28:50;;;;;;;12.27;9.48;;;4.90;99.90;;;;;;5133002;28;20121;-76
2022/01/09 01:31:16;;;;;;;14.98;10.20;;;4.70;99.90;;;;;;5132803;28;20039;-76
2022/01/09 01:33:42;;;;;;;11.82;9.60;;;4.70;99.90;;;;;;5133489;28;20028;-75
2022/01/09 01:36:08;;;;;;;16.73;10.63;;;4.70;99.90;;;;;;5132985;28;20051;-76
2022/01/09 01:38:34;;;;;;;15.68;10.82;;;4.70;99.90;;;;;;5133185;28;20039;-75
2022/01/09 01:41:00;;;;;;;18.27;11.60;;;4.70;99.90;;;;;;5115417;28;20500;-75
2022/01/09 01:43:26;;;;;;;21.33;12.13;;;4.70;99.90;;;;;;5134260;27;20035;-76
2022/01/09 01:45:52;;;;;;;13.35;9.60;;;4.70;99.90;;;;;;5131701;28;20054;-75
2022/01/09 01:48:18;;;;;;;33.35;13.35;;;5.00;99.90;;;;;;5134174;28;20426;-75
2022/01/09 01:50:46;;;;;;;31.80;13.98;;;4.80;99.90;;;;;;5132864;28;20498;-75
2022/01/09 01:53:16;;;;;;;16.80;10.13;;;4.80;99.90;;;;;;5132106;28;20047;-75
2022/01/09 01:55:42;;;;;;;14.40;9.80;;;4.80;99.90;;;;;;5132723;28;20104;-75
2022/01/09 01:58:13;;;;;;;18.63;10.77;;;4.80;99.90;;;;;;5134661;27;20047;-75
2022/01/09 02:00:42;;;;;;;14.45;9.55;;;4.80;99.90;;;;;;5135859;27;20043;-75
2022/01/09 02:03:09;;;;;;;18.52;9.80;;;4.80;99.90;;;;;;5137970;27;20051;-75
2022/01/09 02:05:36;;;;;;;12.65;6.38;;;4.80;99.90;;;;;;5119363;27;20075;-75
2022/01/09 02:08:03;;;;;;;15.68;8.43;;;4.90;99.90;;;;;;5135640;27;20050;-75
2022/01/09 02:10:29;;;;;;;19.88;8.45;;;5.00;99.90;;;;;;5137686;27;20047;-75
2022/01/09 02:12:56;;;;;;;21.08;8.60;;;5.10;99.90;;;;;;5137574;27;20043;-75
2022/01/09 02:15:26;;;;;;;20.98;8.65;;;5.10;99.90;;;;;;5136710;27;20112;-75
2022/01/09 02:17:52;;;;;;;15.80;8.05;;;5.20;99.90;;;;;;5136942;27;20390;-75
2022/01/09 02:20:17;;;;;;;21.05;7.15;;;5.20;99.90;;;;;;5137575;27;20058;-75
2022/01/09 02:22:43;;;;;;;21.20;6.63;;;5.20;99.90;;;;;;5136972;27;20028;-75
2022/01/09 02:25:10;;;;;;;23.23;6.47;;;5.20;99.90;;;;;;5137144;27;20410;-75
2022/01/09 02:27:36;;;;;;;20.75;6.10;;;5.30;99.90;;;;;;5137505;27;20043;-75
2022/01/09 02:30:02;;;;;;;23.73;5.03;;;5.40;99.90;;;;;;5136518;27;20047;-75
2022/01/09 02:32:28;;;;;;;27.92;5.43;;;5.50;99.90;;;;;;5137121;27;20482;-75
2022/01/09 02:34:53;;;;;;;24.67;5.35;;;5.50;99.90;;;;;;5136461;27;20104;-75
2022/01/09 02:37:19;;;;;;;33.40;5.20;;;5.60;99.90;;;;;;5119114;27;20099;-74
2022/01/09 02:39:45;;;;;;;34.28;5.03;;;5.70;99.90;;;;;;5136937;27;20114;-75
2022/01/09 02:42:23;;;;;;;31.42;4.68;;;5.60;99.90;;;;;;5134871;27;20043;-75
2022/01/09 02:44:49;;;;;;;26.38;3.92;;;5.70;99.90;;;;;;5147080;27;20058;-75
2022/01/09 02:47:15;;;;;;;33.70;5.30;;;5.70;99.90;;;;;;5139185;27;20057;-75
2022/01/09 02:49:46;;;;;;;42.08;5.18;;;5.80;99.90;;;;;;5156896;27;20039;-75
2022/01/09 02:52:25;;;;;;;31.90;5.05;;;5.80;99.90;;;;;;5157667;27;20432;-75
2022/01/09 02:57:35;;;;;;;37.83;5.03;;;5.80;99.90;;;;;;5138104;27;20082;-75
2022/01/09 03:00:00;;;;;;;42.13;5.53;;;5.90;99.90;;;;;;5157460;27;20082;-75
2022/01/09 03:02:26;;;;;;;43.45;5.63;;;5.90;99.90;;;;;;5138903;27;20126;-75
2022/01/09 03:04:52;;;;;;;55.00;6.32;;;5.90;99.90;;;;;;5156831;27;20042;-75
2022/01/09 03:07:17;;;;;;;46.63;7.07;;;6.00;99.90;;;;;;5139040;27;20057;-75
2022/01/09 03:09:43;;;;;;;51.15;6.82;;;6.00;99.90;;;;;;5138727;27;20386;-75
2022/01/09 03:12:11;;;;;;;43.55;6.38;;;6.10;99.90;;;;;;5155905;27;20039;-75
2022/01/09 03:14:37;;;;;;;45.63;8.27;;;6.10;99.90;;;;;;5138810;27;20047;-75
2022/01/09 03:17:03;;;;;;;46.92;7.70;;;6.10;99.90;;;;;;5138264;27;20374;-75
2022/01/09 03:19:29;;;;;;;60.58;6.43;;;6.10;99.90;;;;;;5156999;27;20525;-75
2022/01/09 03:21:54;;;;;;;60.03;7.20;;;6.10;99.90;;;;;;5138660;27;20074;-75
2022/01/09 03:24:20;;;;;;;60.63;8.65;;;6.20;99.90;;;;;;5156084;27;20046;-75
2022/01/09 03:26:46;;;;;;;57.67;7.90;;;6.20;99.90;;;;;;5138350;27;20075;-75
2022/01/09 03:29:12;;;;;;;66.28;7.93;;;6.30;99.90;;;;;;5138213;27;20039;-75
2022/01/09 03:31:38;;;;;;;54.55;7.10;;;6.30;99.90;;;;;;5120412;27;20043;-75
2022/01/09 03:34:04;;;;;;;37.30;5.90;;;6.40;99.90;;;;;;5156630;27;20046;-74
2022/01/09 03:36:30;;;;;;;43.20;6.45;;;6.40;99.90;;;;;;5138037;27;20046;-74
2022/01/09 03:38:55;;;;;;;43.42;5.70;;;6.40;99.90;;;;;;5137203;27;20042;-74
2022/01/09 03:41:21;;;;;;;35.95;5.03;;;6.50;99.90;;;;;;5121565;27;20042;-74
2022/01/09 03:43:47;;;;;;;48.65;8.10;;;6.50;99.90;;;;;;5137845;27;20045;-75
2022/01/09 03:46:12;;;;;;;42.08;6.50;;;6.50;99.90;;;;;;5155635;27;20038;-75
2022/01/09 03:48:38;;;;;;;52.92;8.27;;;6.50;99.90;;;;;;5156351;27;20454;-74
2022/01/09 03:51:04;;;;;;;53.03;6.95;;;6.50;99.90;;;;;;5138138;27;20042;-74
2022/01/09 03:53:31;;;;;;;45.63;6.88;;;6.60;99.90;;;;;;5155733;27;20034;-75
2022/01/09 03:55:57;;;;;;;41.97;4.75;;;6.40;99.90;;;;;;5137841;27;20526;-74
2022/01/09 03:58:23;;;;;;;37.08;5.63;;;6.40;99.90;;;;;;5156345;27;20046;-75
2022/01/09 04:00:49;;;;;;;42.10;6.55;;;6.40;99.90;;;;;;5155356;27;20527;-75
2022/01/09 04:03:15;;;;;;;45.65;7.28;;;6.40;99.90;;;;;;5156361;27;20054;-75
2022/01/09 04:05:40;;;;;;;35.15;5.65;;;6.40;99.90;;;;;;5137597;27;20439;-74
2022/01/09 04:08:06;;;;;;;36.40;5.75;;;6.40;99.90;;;;;;5119904;27;20046;-75
2022/01/09 04:10:33;;;;;;;29.50;4.95;;;6.40;99.90;;;;;;5137642;27;20043;-75
2022/01/09 04:13:01;;;;;;;45.58;6.18;;;6.40;99.90;;;;;;5120621;27;20441;-75
2022/01/09 04:15:28;;;;;;;33.83;5.68;;;6.40;99.90;;;;;;5136753;27;20367;-75
2022/01/09 04:17:58;;;;;;;34.25;6.10;;;6.40;99.90;;;;;;5137324;27;20078;-75
2022/01/09 04:20:29;;;;;;;28.75;5.25;;;6.40;99.90;;;;;;5136442;27;20129;-75
2022/01/09 04:22:55;;;;;;;27.38;5.00;;;6.40;99.90;;;;;;5136548;27;20095;-75
2022/01/09 04:25:22;;;;;;;42.38;7.30;;;6.40;99.90;;;;;;5137259;27;20050;-75
2022/01/09 04:27:49;;;;;;;36.70;4.63;;;6.40;99.90;;;;;;5136756;27;20043;-75
2022/01/09 04:30:15;;;;;;;31.55;5.75;;;6.40;99.90;;;;;;5120198;27;20125;-75
2022/01/09 04:32:41;;;;;;;29.75;4.35;;;6.40;99.90;;;;;;5137012;27;20075;-74
2022/01/09 04:35:07;;;;;;;37.53;6.13;;;6.30;99.90;;;;;;5154856;27;20083;-75
2022/01/09 04:37:34;;;;;;;31.02;5.03;;;6.40;99.90;;;;;;5155682;27;20046;-75
2022/01/09 04:40:00;;;;;;;31.23;4.95;;;6.40;99.90;;;;;;5155689;27;20050;-75
2022/01/09 04:42:40;;;;;;;40.53;6.35;;;6.30;99.90;;;;;;5136199;27;20487;-74
2022/01/09 04:45:07;;;;;;;32.20;4.63;;;6.30;99.90;;;;;;5136585;27;20050;-74
2022/01/09 04:47:33;;;;;;;27.98;5.85;;;6.30;99.90;;;;;;5136907;27;20473;-75
2022/01/09 04:50:00;;;;;;;42.97;5.78;;;6.30;99.90;;;;;;5136123;27;20086;-74
2022/01/09 04:52:32;;;;;;;33.78;5.80;;;6.20;99.90;;;;;;5155460;27;20052;-75
2022/01/09 04:54:57;;;;;;;33.80;5.22;;;6.20;99.90;;;;;;5136925;27;20481;-74
2022/01/09 04:57:23;;;;;;;35.97;5.15;;;6.20;99.90;;;;;;5154678;27;20039;-75
2022/01/09 04:59:49;;;;;;;35.83;5.10;;;6.10;99.90;;;;;;5136669;27;20474;-74
2022/01/09 05:02:15;;;;;;;38.00;6.28;;;6.10;99.90;;;;;;5136685;27;20035;-74
2022/01/09 05:04:40;;;;;;;31.48;4.88;;;6.10;99.90;;;;;;5135767;27;20180;-75
2022/01/09 05:07:06;;;;;;;32.55;4.68;;;6.00;99.90;;;;;;5136616;27;20051;-75
2022/01/09 05:09:32;;;;;;;18.15;3.42;;;6.00;99.90;;;;;;5136811;27;20141;-74
2022/01/09 05:11:58;;;;;;;37.50;6.10;;;6.00;99.90;;;;;;5118663;27;20054;-73
2022/01/09 05:14:24;;;;;;;27.70;4.47;;;6.00;99.90;;;;;;5136470;27;20478;-75
2022/01/09 05:16:50;;;;;;;32.38;3.88;;;6.00;99.90;;;;;;5135824;27;20075;-75
2022/01/09 05:19:19;;;;;;;21.38;3.47;;;6.00;99.90;;;;;;5119512;27;20046;-74
2022/01/09 05:21:46;;;;;;;24.10;3.92;;;5.90;99.90;;;;;;5136706;27;20055;-74
2022/01/09 05:24:12;;;;;;;19.08;3.70;;;5.90;99.90;;;;;;5135760;27;20074;-75
2022/01/09 05:26:37;;;;;;;16.80;3.35;;;5.90;99.90;;;;;;5136346;27;20085;-74
2022/01/09 05:29:03;;;;;;;16.27;2.30;;;5.90;99.90;;;;;;5136690;27;20041;-74
2022/01/09 05:31:29;;;;;;;20.15;3.10;;;5.90;99.90;;;;;;5135610;27;20485;-74
2022/01/09 05:33:55;;;;;;;20.58;3.72;;;5.90;99.90;;;;;;5137674;27;20042;-75
2022/01/09 05:36:20;;;;;;;23.02;3.88;;;5.90;99.90;;;;;;5159236;27;20043;-74
2022/01/09 05:38:46;;;;;;;16.30;2.60;;;5.90;99.90;;;;;;5122457;27;20042;-74
2022/01/09 05:41:12;;;;;;;21.38;3.13;;;5.90;99.90;;;;;;5140334;27;20046;-74
2022/01/09 05:43:39;;;;;;;24.85;4.35;;;5.90;99.90;;;;;;5140335;27;20090;-74
2022/01/09 05:46:05;;;;;;;26.33;3.80;;;5.90;99.90;;;;;;5139256;27;20065;-74
2022/01/09 05:48:31;;;;;;;21.83;4.28;;;5.90;99.90;;;;;;5123158;27;20035;-74
2022/01/09 05:50:57;;;;;;;26.27;3.85;;;5.90;99.90;;;;;;5123193;27;20125;-74
2022/01/09 05:53:22;;;;;;;27.42;3.90;;;5.90;99.90;;;;;;5139029;27;20111;-75
2022/01/09 05:55:48;;;;;;;35.13;4.00;;;5.90;99.90;;;;;;5123261;27;20042;-75
2022/01/09 05:58:15;;;;;;;18.58;3.65;;;5.80;99.90;;;;;;5139980;27;20039;-74
2022/01/09 06:00:40;;;;;;;23.92;4.22;;;5.80;99.90;;;;;;5139580;27;20043;-75
2022/01/09 06:03:06;;;;;;;27.15;3.83;;;5.80;99.90;;;;;;5140051;27;20041;-73
2022/01/09 06:05:32;;;;;;;27.92;5.43;;;5.80;99.90;;;;;;5139967;27;20046;-74
2022/01/09 06:07:57;;;;;;;24.42;3.55;;;5.80;99.90;;;;;;5138879;27;20043;-74
2022/01/09 06:10:23;;;;;;;30.00;4.75;;;5.80;99.90;;;;;;5139856;27;20050;-75
2022/01/09 06:12:49;;;;;;;23.00;3.38;;;5.80;99.90;;;;;;5122734;27;20038;-74
2022/01/09 06:15:15;;;;;;;29.20;3.75;;;5.80;99.90;;;;;;5139027;27;20054;-74
2022/01/09 06:17:42;;;;;;;32.30;4.10;;;5.80;99.90;;;;;;5122617;27;20390;-74
2022/01/09 06:20:09;;;;;;;20.63;3.72;;;5.80;99.90;;;;;;5139184;27;20493;-73
2022/01/09 06:22:35;;;;;;;26.92;4.18;;;5.80;99.90;;;;;;5139938;27;20386;-73
2022/01/09 06:25:01;;;;;;;21.63;3.65;;;5.80;99.90;;;;;;5139424;27;20077;-74
2022/01/09 06:27:27;;;;;;;18.13;3.42;;;5.80;99.90;;;;;;5121823;27;20041;-74
2022/01/09 06:29:52;;;;;;;20.13;3.92;;;5.80;99.90;;;;;;5139646;27;20486;-75
2022/01/09 06:32:18;;;;;;;24.88;4.55;;;5.80;99.90;;;;;;5139426;27;20051;-75
2022/01/09 06:34:44;;;;;;;24.38;4.07;;;5.80;99.90;;;;;;5138510;27;20043;-74
2022/01/09 06:37:12;;;;;;;22.20;3.28;;;5.80;99.90;;;;;;5139709;27;20128;-74
2022/01/09 06:39:42;;;;;;;17.95;3.20;;;5.80;99.90;;;;;;5139489;27;20107;-75
2022/01/09 06:42:09;;;;;;;22.33;3.65;;;5.70;99.90;;;;;;5138751;27;20041;-74
2022/01/09 06:44:35;;;;;;;29.08;3.17;;;5.70;99.90;;;;;;5138901;27;20055;-74
2022/01/09 06:47:01;;;;;;;23.13;3.50;;;5.70;99.90;;;;;;5138324;27;20520;-75
2022/01/09 06:49:27;;;;;;;20.10;2.78;;;5.70;99.90;;;;;;5138306;27;20125;-75
2022/01/09 06:51:52;;;;;;;21.23;3.08;;;5.60;99.90;;;;;;5138969;27;20081;-75
2022/01/09 06:54:18;;;;;;;24.00;2.65;;;5.60;99.90;;;;;;5121846;27;20080;-75
2022/01/09 06:56:44;;;;;;;15.55;2.58;;;5.70;99.90;;;;;;5137989;27;20086;-74
2022/01/09 06:59:10;;;;;;;30.08;3.85;;;5.50;99.90;;;;;;5138778;27;20091;-75
2022/01/09 07:01:35;;;;;;;21.90;3.22;;;5.50;99.90;;;;;;5139092;27;20047;-74
2022/01/09 07:04:01;;;;;;;16.40;2.88;;;5.40;99.90;;;;;;5137951;27;20435;-74
2022/01/09 07:06:27;;;;;;;15.55;2.92;;;5.40;99.90;;;;;;5138900;27;20046;-74
2022/01/09 07:08:58;;;;;;;15.52;2.25;;;5.40;99.90;;;;;;5138856;27;20115;-74
2022/01/09 07:11:24;;;;;;;30.27;3.85;;;5.30;99.90;;;;;;5137777;27;20043;-75
2022/01/09 07:13:50;;;;;;;24.92;3.70;;;5.30;99.90;;;;;;5121580;27;20437;-74
2022/01/09 07:16:16;;;;;;;20.67;3.05;;;5.30;99.90;;;;;;5137757;27;20047;-74
2022/01/09 07:18:41;;;;;;;26.52;3.50;;;5.20;99.90;;;;;;5138609;27;20035;-74
2022/01/09 07:21:07;;;;;;;20.60;2.80;;;5.50;99.90;;;;;;5138360;27;20090;-74
2022/01/09 07:23:33;;;;;;;19.40;3.50;;;5.20;99.90;;;;;;5137782;27;20043;-75
2022/01/09 07:25:58;;;;;;;19.80;2.63;;;5.20;99.90;;;;;;5138427;27;20558;-75
2022/01/09 07:28:24;;;;;;;15.15;2.75;;;5.10;99.90;;;;;;5138600;27;20485;-75
2022/01/09 07:30:50;;;;;;;10.63;2.05;;;5.10;99.90;;;;;;5137286;27;20043;-75
2022/01/09 07:33:16;;;;;;;17.73;3.38;;;5.00;99.90;;;;;;5121017;27;20122;-75
2022/01/09 07:35:41;;;;;;;14.05;3.85;;;5.00;99.90;;;;;;5138577;27;20050;-74
2022/01/09 07:38:08;;;;;;;18.38;2.72;;;5.00;99.90;;;;;;5137287;27;20118;-74
2022/01/09 07:40:34;;;;;;;13.82;2.90;;;5.00;99.90;;;;;;5121117;27;20397;-74
2022/01/09 07:43:00;;;;;;;21.48;2.75;;;5.00;99.90;;;;;;5138120;27;20046;-74
2022/01/09 07:45:27;;;;;;;19.95;2.95;;;5.00;99.90;;;;;;5136944;27;20100;-74
2022/01/09 07:47:55;;;;;;;18.15;2.72;;;5.00;99.90;;;;;;5138232;27;20070;-75
2022/01/09 07:50:22;;;;;;;18.42;2.65;;;4.90;99.90;;;;;;5120755;27;20049;-75
2022/01/09 07:52:48;;;;;;;9.55;1.73;;;4.90;99.90;;;;;;5137385;27;20113;-74
2022/01/09 07:55:15;;;;;;;8.52;2.17;;;4.90;99.90;;;;;;5137889;27;20051;-75
2022/01/09 07:57:41;;;;;;;17.25;2.35;;;4.80;99.90;;;;;;5120506;27;20047;-75
2022/01/09 08:00:09;;;;;;;11.07;1.67;;;4.80;99.90;;;;;;5136652;27;20092;-74
2022/01/09 08:02:35;;;;;;;13.38;2.30;;;4.80;99.90;;;;;;5137667;27;20059;-73
2022/01/09 08:05:01;;;;;;;9.50;2.03;;;5.10;99.90;;;;;;5156253;27;20042;-75
2022/01/09 08:07:27;;;;;;;13.20;2.33;;;4.80;99.90;;;;;;5136794;27;20398;-75
2022/01/09 08:09:53;;;;;;;8.52;1.70;;;4.80;99.90;;;;;;5156119;27;20039;-75
2022/01/09 08:12:19;;;;;;;14.43;2.10;;;4.80;99.90;;;;;;5137547;27;20501;-75
2022/01/09 08:14:45;;;;;;;13.90;1.85;;;4.80;99.90;;;;;;5136701;27;20046;-75
2022/01/09 08:17:14;;;;;;;6.60;1.17;;;4.80;99.90;;;;;;5137443;27;20130;-74
2022/01/09 08:19:40;;;;;;;12.00;1.83;;;4.80;99.90;;;;;;5136426;27;20064;-74
2022/01/09 08:22:07;;;;;;;11.25;1.83;;;4.80;99.90;;;;;;5120566;27;20074;-75
2022/01/09 08:24:34;;;;;;;15.70;2.67;;;4.80;99.90;;;;;;5137554;27;20385;-74
2022/01/09 08:27:00;;;;;;;15.73;3.03;;;4.80;99.90;;;;;;5119107;27;20186;-75
2022/01/09 08:29:26;;;;;;;11.70;1.88;;;4.90;99.90;;;;;;5137306;27;20537;-75
2022/01/09 08:31:52;;;;;;;12.40;2.42;;;4.90;99.90;;;;;;5120012;27;20080;-74
2022/01/09 08:34:20;;;;;;;28.33;2.70;;;4.90;99.90;;;;;;5136421;27;20042;-74
2022/01/09 08:36:46;;;;;;;18.55;3.13;;;4.90;99.90;;;;;;5136923;27;20042;-75
2022/01/09 08:39:12;;;;;;;23.00;3.70;;;4.90;99.90;;;;;;5155859;27;20082;-75
2022/01/09 08:41:38;;;;;;;21.80;4.13;;;5.00;99.90;;;;;;5136144;27;20045;-74
2022/01/09 08:44:06;;;;;;;19.85;2.92;;;5.00;99.90;;;;;;5136845;27;20561;-75
2022/01/09 08:46:34;;;;;;;12.98;2.58;;;5.10;99.90;;;;;;5136811;27;20058;-75
2022/01/09 08:49:02;;;;;;;17.90;3.08;;;5.10;99.90;;;;;;5136008;27;20038;-76
2022/01/09 08:51:28;;;;;;;15.13;2.33;;;5.20;99.90;;;;;;5136812;27;20042;-74
2022/01/09 08:53:55;;;;;;;18.52;2.80;;;5.20;99.90;;;;;;5119783;27;20076;-74
2022/01/09 08:56:22;;;;;;;25.20;5.50;;;5.20;99.90;;;;;;5135912;27;20047;-74
2022/01/09 08:58:48;;;;;;;21.80;3.78;;;5.20;99.90;;;;;;5136827;27;20046;-74
2022/01/09 09:01:14;;;;;;;19.75;3.40;;;5.20;99.90;;;;;;5136993;27;20103;-75
2022/01/09 09:03:43;;;;;;;18.98;3.05;;;5.20;99.90;;;;;;5135874;27;20049;-75
2022/01/09 09:06:15;;;;;;;16.05;2.05;;;5.20;99.90;;;;;;5155189;27;20054;-74
2022/01/09 09:08:42;;;;;;;13.77;2.20;;;5.20;99.90;;;;;;5136432;27;20049;-75
2022/01/09 09:11:10;;;;;;;11.60;2.55;;;5.20;99.90;;;;;;5136457;27;20072;-75
2022/01/09 09:13:37;;;;;;;17.80;2.25;;;5.20;99.90;;;;;;5136797;27;20102;-74
2022/01/09 09:16:03;;;;;;;13.63;2.17;;;5.10;99.90;;;;;;5118698;27;20034;-74
2022/01/09 09:18:29;;;;;;;9.20;1.48;;;5.10;99.90;;;;;;5136559;27;20042;-74
2022/01/09 09:20:56;;;;;;;10.93;1.48;;;5.10;99.90;;;;;;5136917;27;20385;-74
2022/01/09 09:23:22;;;;;;;13.48;1.88;;;5.10;99.90;;;;;;5135778;27;20505;-75
2022/01/09 09:25:48;;;;;;;7.93;1.50;;;5.10;99.90;;;;;;5136748;27;20043;-74
2022/01/09 09:28:14;;;;;;;8.25;1.13;;;5.10;99.90;;;;;;5136427;27;20051;-74
2022/01/09 09:30:40;;;;;;;11.48;1.83;;;5.10;99.90;;;;;;5135662;27;20560;-74
2022/01/09 09:33:06;;;;;;;10.93;1.60;;;5.10;99.90;;;;;;5154940;27;20501;-75
2022/01/09 09:35:33;;;;;;;11.88;2.05;;;5.10;99.90;;;;;;5136504;27;20054;-74
2022/01/09 09:37:59;;;;;;;11.05;3.55;;;5.10;99.90;;;;;;5135573;27;20493;-75
2022/01/09 09:40:26;;;;;;;8.95;2.25;;;5.10;99.90;;;;;;5136667;27;20058;-75
2022/01/09 09:42:52;;;;;;;11.88;1.77;;;5.10;99.90;;;;;;5136352;27;20051;-75
2022/01/09 09:45:18;;;;;;;7.72;1.63;;;5.10;99.90;;;;;;5135139;27;20497;-75
2022/01/09 09:47:43;;;;;;;9.95;1.40;;;5.10;99.90;;;;;;5136414;27;20051;-75
2022/01/09 09:50:13;;;;;;;10.25;2.08;;;5.10;99.90;;;;;;5136266;27;20091;-75
2022/01/09 09:52:41;;;;;;;14.45;1.77;;;5.10;99.90;;;;;;5135127;27;20049;-75
2022/01/09 09:55:08;;;;;;;12.48;1.85;;;5.10;99.90;;;;;;5119561;27;20049;-75
2022/01/09 09:57:34;;;;;;;10.80;1.80;;;5.10;99.90;;;;;;5119019;27;20039;-75
2022/01/09 10:00:11;;;;;;;11.48;1.40;;;5.10;99.90;;;;;;5135320;27;20119;-74
2022/01/09 10:02:43;;;;;;;6.18;1.60;;;5.10;99.90;;;;;;5136215;27;20042;-75
2022/01/09 10:05:11;;;;;;;11.68;2.13;;;5.10;99.90;;;;;;5135547;27;20128;-75
2022/01/09 10:07:37;;;;;;;9.13;1.60;;;5.10;99.90;;;;;;5119264;27;20047;-75
2022/01/09 10:10:17;;;;;;;12.00;1.63;;;5.10;99.90;;;;;;5135990;27;20039;-74
2022/01/09 10:12:45;;;;;;;8.50;1.60;;;5.10;99.90;;;;;;5118124;27;20085;-75
2022/01/09 10:15:19;;;;;;;10.23;1.65;;;5.20;99.90;;;;;;5136088;27;20489;-75
2022/01/09 10:17:50;;;;;;;13.17;1.53;;;5.10;99.90;;;;;;5135920;27;20078;-74
2022/01/09 10:20:18;;;;;;;16.60;2.72;;;5.20;99.90;;;;;;5135839;27;20043;-74
2022/01/09 10:22:53;;;;;;;12.45;1.83;;;5.30;99.90;;;;;;5122404;27;20050;-74
2022/01/09 10:25:21;;;;;;;12.82;2.13;;;5.40;99.90;;;;;;5139838;27;20034;-74
2022/01/09 10:27:51;;;;;;;12.15;2.42;;;5.40;99.90;;;;;;5138882;27;20050;-74
2022/01/09 10:30:22;;;;;;;15.05;1.73;;;5.50;99.90;;;;;;5139961;27;20092;-75
2022/01/09 10:32:54;;;;;;;13.15;2.13;;;5.50;99.90;;;;;;5139707;27;20034;-74
2022/01/09 10:35:21;;;;;;;11.93;2.67;;;5.60;99.90;;;;;;5138675;27;20071;-75
2022/01/09 10:37:49;;;;;;;14.80;1.80;;;5.60;99.90;;;;;;5139341;27;20039;-74
2022/01/09 10:40:29;;;;;;;11.90;2.53;;;5.70;99.90;;;;;;5157219;27;20045;-74
2022/01/09 10:43:13;;;;;;;12.05;2.88;;;5.80;99.90;;;;;;5157927;27;20042;-75
2022/01/09 10:45:41;;;;;;;17.85;2.72;;;5.80;99.90;;;;;;5139043;27;20481;-75
2022/01/09 10:48:09;;;;;;;17.13;2.92;;;5.80;99.90;;;;;;5138321;27;20045;-75
2022/01/09 10:50:40;;;;;;;16.80;2.15;;;5.90;99.90;;;;;;5157681;27;20116;-75
2022/01/09 10:53:29;;;;;;;16.65;2.88;;;5.90;99.90;;;;;;5138996;27;20401;-75
2022/01/09 10:56:13;;;;;;;16.73;2.63;;;5.90;99.90;;;;;;5156703;27;20031;-75
2022/01/09 10:58:45;;;;;;;17.52;2.35;;;6.00;99.90;;;;;;5157631;27;20049;-75
2022/01/09 11:01:20;;;;;;;14.85;2.22;;;6.10;99.90;;;;;;5121736;27;20043;-75
2022/01/09 11:04:00;;;;;;;12.93;2.70;;;6.20;99.90;;;;;;5139197;27;20363;-75
2022/01/09 11:06:30;;;;;;;10.93;2.22;;;6.20;99.90;;;;;;5138723;27;20043;-75
2022/01/09 11:08:56;;;;;;;11.85;1.70;;;6.30;99.90;;;;;;5138180;27;20042;-75
2022/01/09 11:11:40;;;;;;;14.98;1.98;;;6.30;99.90;;;;;;5138794;27;20142;-73
2022/01/09 11:14:12;;;;;;;13.43;2.92;;;6.30;99.90;;;;;;5138849;27;20119;-75
2022/01/09 11:16:43;;;;;;;10.93;3.17;;;6.30;99.90;;;;;;5138031;27;20472;-75
2022/01/09 11:19:17;;;;;;;13.45;1.63;;;6.40;99.90;;;;;;5138696;27;20047;-75
2022/01/09 11:21:45;;;;;;;10.70;2.63;;;6.40;99.90;;;;;;5157153;27;20385;-75
2022/01/09 11:24:14;;;;;;;13.23;2.17;;;6.50;99.90;;;;;;5156254;27;20035;-75
2022/01/09 11:27:01;;;;;;;9.07;1.63;;;6.60;99.90;;;;;;5138334;27;20401;-74
2022/01/09 11:29:59;;;;;;;16.08;2.15;;;6.60;99.90;;;;;;5156249;27;20042;-74
2022/01/09 11:33:03;;;;;;;10.35;2.35;;;6.70;99.90;;;;;;5156547;27;20031;-75
2022/01/09 11:35:45;;;;;;;13.43;1.48;;;6.80;99.90;;;;;;5138236;27;20061;-73
2022/01/09 11:38:26;;;;;;;12.63;1.73;;;6.80;99.90;;;;;;5156092;27;20116;-74
2022/01/09 11:40:53;;;;;;;12.63;2.22;;;6.80;99.90;;;;;;5138536;27;20397;-75
2022/01/09 11:43:19;;;;;;;13.90;2.08;;;6.80;99.90;;;;;;5137975;27;20452;-74
2022/01/09 11:45:58;;;;;;;15.77;2.00;;;6.70;99.90;;;;;;5155386;27;20378;-75
2022/01/09 11:48:52;;;;;;;11.63;2.50;;;6.70;99.90;;;;;;5120920;27;20038;-75
2022/01/09 11:51:26;;;;;;;12.40;1.65;;;6.70;99.90;;;;;;5120043;27;20082;-75
2022/01/09 11:54:16;;;;;;;6.50;1.30;;;6.70;99.90;;;;;;5120898;27;20043;-75
2022/01/09 11:57:06;;;;;;;13.30;2.40;;;6.80;99.90;;;;;;5137957;27;20042;-73
2022/01/09 11:59:48;;;;;;;10.43;1.95;;;6.70;99.90;;;;;;5137331;27;20390;-75
2022/01/09 12:02:17;;;;;;;12.02;1.38;;;6.80;99.90;;;;;;5137876;27;20110;-74
2022/01/09 12:04:43;;;;;;;12.10;1.77;;;6.80;99.90;;;;;;5155454;27;20054;-75
2022/01/09 12:07:13;;;;;;;6.43;1.80;;;6.80;99.90;;;;;;5137494;27;20058;-74
2022/01/09 12:09:45;;;;;;;17.02;1.98;;;6.80;99.90;;;;;;5137779;27;20406;-75
2022/01/09 12:12:22;;;;;;;8.27;1.80;;;6.70;99.90;;;;;;5136809;27;20051;-74
2022/01/09 12:15:02;;;;;;;7.93;1.38;;;6.70;99.90;;;;;;5137546;27;20494;-75
2022/01/09 12:17:39;;;;;;;9.45;1.92;;;6.60;99.90;;;;;;5156347;27;20054;-74
2022/01/09 12:20:11;;;;;;;12.05;1.50;;;6.70;99.90;;;;;;5155127;27;20039;-74
2022/01/09 12:25:25;;;;;;;11.65;1.60;;;6.80;99.90;;;;;;5137260;27;20047;-74
2022/01/09 12:28:03;;;;;;;9.40;1.52;;;6.80;99.90;;;;;;5136403;27;20047;-75
2022/01/09 12:30:41;;;;;;;8.68;2.08;;;6.80;99.90;;;;;;5137367;27;20150;-75
2022/01/09 12:33:35;;;;;;;6.82;1.50;;;6.80;99.90;;;;;;5119435;27;20049;-75
2022/01/09 12:36:15;;;;;;;10.52;1.65;;;6.90;99.90;;;;;;5137263;27;20047;-75
2022/01/09 12:38:47;;;;;;;7.57;1.80;;;6.80;99.90;;;;;;5120007;27;20077;-75
2022/01/09 12:41:42;;;;;;;9.52;2.80;;;6.70;99.90;;;;;;5119057;27;20064;-75
2022/01/09 12:44:08;;;;;;;8.30;1.30;;;6.70;99.90;;;;;;5133521;27;20063;-74
2022/01/09 12:46:36;;;;;;;7.55;1.42;;;6.60;99.90;;;;;;5155152;27;20057;-74
2022/01/09 12:49:07;;;;;;;6.40;1.27;;;6.60;99.90;;;;;;5136174;27;20046;-73
2022/01/09 12:51:34;;;;;;;10.77;1.20;;;6.50;99.90;;;;;;5137207;27;20125;-75
2022/01/09 12:54:06;;;;;;;3.38;0.70;;;6.40;99.90;;;;;;5136151;27;20038;-74
2022/01/09 12:56:37;;;;;;;4.57;1.08;;;6.30;99.90;;;;;;5137254;27;20051;-75
2022/01/09 12:59:07;;;;;;;3.97;1.13;;;6.20;99.90;;;;;;5137026;27;20394;-75